createdAt,value
2023-05-22T00:00:19.376Z,17.81
2023-05-22T00:02:47.219Z,17.80
2023-05-22T00:05:18.266Z,17.79
2023-05-22T00:07:46.464Z,17.79
2023-05-22T00:10:14.124Z,17.75
2023-05-22T00:12:41.852Z,17.74
2023-05-22T00:15:11.362Z,17.74
2023-05-22T00:17:40.545Z,17.74
2023-05-22T00:20:10.988Z,17.71
2023-05-22T00:22:38.853Z,17.71
2023-05-22T00:25:08.369Z,17.70
2023-05-22T00:27:36.005Z,17.70
2023-05-22T00:30:05.372Z,17.67
2023-05-22T00:32:33.024Z,17.65
2023-05-22T00:35:01.982Z,17.64
2023-05-22T00:37:29.801Z,17.62
2023-05-22T00:39:57.925Z,17.62
2023-05-22T00:42:25.780Z,17.61
2023-05-22T00:44:53.456Z,17.59
2023-05-22T00:47:21.196Z,17.56
2023-05-22T00:49:48.862Z,17.57
2023-05-22T00:52:18.117Z,17.54
2023-05-22T00:54:46.541Z,17.52
2023-05-22T00:57:14.383Z,17.53
2023-05-22T00:59:42.112Z,17.50
2023-05-22T01:02:10.011Z,17.49
2023-05-22T01:04:37.839Z,17.48
2023-05-22T01:07:06.246Z,17.45
2023-05-22T01:09:35.264Z,17.43
2023-05-22T01:12:15.570Z,17.42
2023-05-22T01:14:49.582Z,17.41
2023-05-22T01:17:25.037Z,17.39
2023-05-22T01:20:07.462Z,17.36
2023-05-22T01:23:13.884Z,17.35
2023-05-22T01:26:11.371Z,17.32
2023-05-22T01:28:50.728Z,17.28
2023-05-22T01:31:25.569Z,17.25
2023-05-22T01:33:56.939Z,17.23
2023-05-22T01:36:30.932Z,17.22
2023-05-22T01:39:01.490Z,17.21
2023-05-22T01:41:30.315Z,17.19
2023-05-22T01:43:58.279Z,17.15
2023-05-22T01:46:29.154Z,17.11
2023-05-22T01:48:57.293Z,17.09
2023-05-22T01:51:32.747Z,17.08
2023-05-22T01:54:09.198Z,17.05
2023-05-22T01:56:45.608Z,17.04
2023-05-22T01:59:22.143Z,17.00
2023-05-22T02:01:53.008Z,16.95
2023-05-22T02:04:23.598Z,16.93
2023-05-22T02:06:54.343Z,16.90
2023-05-22T02:09:24.568Z,16.86
2023-05-22T02:11:52.549Z,16.83
2023-05-22T02:14:22.214Z,16.81
2023-05-22T02:16:51.255Z,16.78
2023-05-22T02:19:19.306Z,16.76
2023-05-22T02:21:47.695Z,16.74
2023-05-22T02:24:15.551Z,16.74
2023-05-22T02:26:44.070Z,16.74
2023-05-22T02:29:12.856Z,16.74
2023-05-22T02:31:40.882Z,16.73
2023-05-22T02:34:09.991Z,16.72
2023-05-22T02:36:37.994Z,16.70
2023-05-22T02:39:06.093Z,16.69
2023-05-22T02:41:34.092Z,16.71
2023-05-22T02:44:01.836Z,16.70
2023-05-22T02:46:30.331Z,16.70
2023-05-22T02:48:58.009Z,16.70
2023-05-22T02:51:27.151Z,16.73
2023-05-22T02:53:54.791Z,16.75
2023-05-22T02:56:23.956Z,16.76
2023-05-22T02:58:51.596Z,16.75
2023-05-22T03:01:19.236Z,16.76
2023-05-22T03:03:48.290Z,16.77
2023-05-22T03:06:16.309Z,16.78
2023-05-22T03:08:45.324Z,16.78
2023-05-22T03:11:12.937Z,16.78
2023-05-22T03:13:41.333Z,16.78
2023-05-22T03:16:09.032Z,16.78
2023-05-22T03:18:41.151Z,16.77
2023-05-22T03:21:08.754Z,16.76
2023-05-22T03:23:36.358Z,16.78
2023-05-22T03:26:05.629Z,16.79
2023-05-22T03:28:36.877Z,16.77
2023-05-22T03:31:04.754Z,16.76
2023-05-22T03:33:40.821Z,16.74
2023-05-22T03:36:09.819Z,16.72
2023-05-22T03:38:37.821Z,16.69
2023-05-22T03:41:07.769Z,16.66
2023-05-22T03:43:35.694Z,16.65
2023-05-22T03:46:03.420Z,16.62
2023-05-22T03:48:31.230Z,16.59
2023-05-22T03:50:58.957Z,16.57
2023-05-22T03:53:26.565Z,16.53
2023-05-22T03:55:54.338Z,16.53
2023-05-22T03:58:25.449Z,16.50
2023-05-22T04:00:53.881Z,16.49
2023-05-22T04:03:21.590Z,16.48
2023-05-22T04:05:49.445Z,16.46
2023-05-22T04:08:17.158Z,16.44
2023-05-22T04:10:46.316Z,16.42
2023-05-22T04:13:14.869Z,16.40
2023-05-22T04:15:45.901Z,16.37
2023-05-22T04:18:14.294Z,16.35
2023-05-22T04:20:43.043Z,16.35
2023-05-22T04:23:10.888Z,16.34
2023-05-22T04:25:38.725Z,16.33
2023-05-22T04:28:06.405Z,16.31
2023-05-22T04:30:34.306Z,16.30
2023-05-22T04:33:05.260Z,16.27
2023-05-22T04:35:34.158Z,16.27
2023-05-22T04:38:02.025Z,16.23
2023-05-22T04:40:30.205Z,16.22
2023-05-22T04:42:59.693Z,16.19
2023-05-22T04:45:28.664Z,16.18
2023-05-22T04:47:59.583Z,16.18
2023-05-22T04:50:30.227Z,16.17
2023-05-22T04:52:59.578Z,16.16
2023-05-22T04:55:27.440Z,16.15
2023-05-22T04:57:56.267Z,16.15
2023-05-22T05:00:26.495Z,16.15
2023-05-22T05:02:54.504Z,16.14
2023-05-22T05:05:22.430Z,16.14
2023-05-22T05:07:51.820Z,16.14
2023-05-22T05:10:20.385Z,16.13
2023-05-22T05:12:48.041Z,16.13
2023-05-22T05:15:15.674Z,16.14
2023-05-22T05:17:43.478Z,16.13
2023-05-22T05:20:14.349Z,16.14
2023-05-22T05:22:43.941Z,16.15
2023-05-22T05:25:14.370Z,16.16
2023-05-22T05:27:42.076Z,16.18
2023-05-22T05:30:10.754Z,16.22
2023-05-22T05:32:58.747Z,16.23
2023-05-22T05:35:37.064Z,16.28
2023-05-22T05:38:09.409Z,16.30
2023-05-22T05:40:41.879Z,16.34
2023-05-22T05:43:10.585Z,16.40
2023-05-22T05:45:39.367Z,16.44
2023-05-22T05:48:08.023Z,16.49
2023-05-22T05:50:39.200Z,16.53
2023-05-22T05:53:07.284Z,16.59
2023-05-22T05:55:35.940Z,16.64
2023-05-22T05:58:06.214Z,16.69
2023-05-22T06:00:48.769Z,16.74
2023-05-22T06:03:17.723Z,16.80
2023-05-22T06:05:52.773Z,16.88
2023-05-22T06:08:43.221Z,16.97
2023-05-22T06:11:11.105Z,17.03
2023-05-22T06:13:50.738Z,17.10
2023-05-22T06:16:18.443Z,17.16
2023-05-22T06:18:46.591Z,17.22
2023-05-22T06:21:14.219Z,17.28
2023-05-22T06:23:42.571Z,17.34
2023-05-22T06:26:10.289Z,17.39
2023-05-22T06:28:40.494Z,17.46
2023-05-22T06:31:09.831Z,17.51
2023-05-22T06:33:40.583Z,17.59
2023-05-22T06:36:09.215Z,17.64
2023-05-22T06:38:37.838Z,17.70
2023-05-22T06:41:06.338Z,17.75
2023-05-22T06:43:34.033Z,17.80
2023-05-22T06:46:14.673Z,17.86
2023-05-22T06:48:51.052Z,17.92
2023-05-22T06:51:25.481Z,17.96
2023-05-22T06:53:58.918Z,18.03
2023-05-22T06:56:31.839Z,18.07
2023-05-22T06:59:11.616Z,18.16
2023-05-22T07:02:03.442Z,18.24
2023-05-22T07:04:47.876Z,18.31
2023-05-22T07:07:20.673Z,18.37
2023-05-22T07:09:48.661Z,18.45
2023-05-22T07:12:16.892Z,18.52
2023-05-22T07:14:45.812Z,18.58
2023-05-22T07:17:15.872Z,18.66
2023-05-22T07:19:46.073Z,18.73
2023-05-22T07:22:14.542Z,18.80
2023-05-22T07:24:43.465Z,18.87
2023-05-22T07:27:12.307Z,18.97
2023-05-22T07:29:41.016Z,19.07
2023-05-22T07:32:09.930Z,19.15
2023-05-22T07:34:39.457Z,19.21
2023-05-22T07:37:10.641Z,19.28
2023-05-22T07:39:38.984Z,19.33
2023-05-22T07:42:08.406Z,19.37
2023-05-22T07:44:42.321Z,19.42
2023-05-22T07:47:10.062Z,19.46
2023-05-22T07:49:39.163Z,19.51
2023-05-22T07:52:07.891Z,19.54
2023-05-22T07:54:35.857Z,19.57
2023-05-22T07:57:03.737Z,19.60
2023-05-22T07:59:38.317Z,19.66
2023-05-22T08:02:06.121Z,19.71
2023-05-22T08:04:33.831Z,19.79
2023-05-22T08:07:03.257Z,19.88
2023-05-22T08:09:30.884Z,19.98
2023-05-22T08:11:58.698Z,20.07
2023-05-22T08:14:26.301Z,20.12
2023-05-22T08:16:53.993Z,20.15
2023-05-22T08:19:22.223Z,20.18
2023-05-22T08:21:49.932Z,20.27
2023-05-22T08:24:18.882Z,20.33
2023-05-22T08:26:46.493Z,20.42
2023-05-22T08:29:14.085Z,20.48
2023-05-22T08:31:42.205Z,20.55
2023-05-22T08:34:10.541Z,20.62
2023-05-22T08:36:38.148Z,20.69
2023-05-22T08:39:07.369Z,20.73
2023-05-22T08:41:36.519Z,20.81
2023-05-22T08:44:04.227Z,20.88
2023-05-22T08:46:37.825Z,20.98
2023-05-22T08:49:06.617Z,21.07
2023-05-22T08:51:35.724Z,21.18
2023-05-22T08:54:07.383Z,21.20
2023-05-22T08:56:39.832Z,21.24
2023-05-22T08:59:13.809Z,21.31
2023-05-22T09:01:41.551Z,21.39
2023-05-22T09:04:09.347Z,21.46
2023-05-22T09:06:38.512Z,21.49
2023-05-22T09:09:06.157Z,21.51
2023-05-22T09:11:33.805Z,21.58
2023-05-22T09:14:12.345Z,21.64
2023-05-22T09:16:47.403Z,21.67
2023-05-22T09:19:15.788Z,21.75
2023-05-22T09:21:45.670Z,21.78
2023-05-22T09:24:13.303Z,21.79
2023-05-22T09:26:41.124Z,21.83
2023-05-22T09:29:09.182Z,21.89
2023-05-22T09:31:42.105Z,21.93
2023-05-22T09:34:14.072Z,22.01
2023-05-22T09:36:42.355Z,22.07
2023-05-22T09:39:10.811Z,22.09
2023-05-22T09:41:40.293Z,22.13
2023-05-22T09:44:14.770Z,22.16
2023-05-22T09:46:46.083Z,22.20
2023-05-22T09:49:16.451Z,22.24
2023-05-22T09:51:48.600Z,22.30
2023-05-22T09:54:17.422Z,22.36
2023-05-22T09:56:48.684Z,22.45
2023-05-22T09:59:21.692Z,22.49
2023-05-22T10:01:51.523Z,22.48
2023-05-22T10:04:19.736Z,22.55
2023-05-22T10:06:52.126Z,22.63
2023-05-22T10:09:22.749Z,22.72
2023-05-22T10:11:54.385Z,22.80
2023-05-22T10:14:23.378Z,22.87
2023-05-22T10:16:52.500Z,22.93
2023-05-22T10:19:20.282Z,22.98
2023-05-22T10:21:49.545Z,23.01
2023-05-22T10:24:17.577Z,23.04
2023-05-22T10:26:45.321Z,23.06
2023-05-22T10:29:17.764Z,23.11
2023-05-22T10:31:57.024Z,23.20
2023-05-22T10:34:40.534Z,23.29
2023-05-22T10:37:22.537Z,23.35
2023-05-22T10:40:01.845Z,23.36
2023-05-22T10:42:31.457Z,23.39
2023-05-22T10:45:02.023Z,23.47
2023-05-22T10:47:34.046Z,23.53
2023-05-22T10:50:07.987Z,23.52
2023-05-22T10:52:35.740Z,23.55
2023-05-22T10:55:07.388Z,23.51
2023-05-22T10:57:35.478Z,23.50
2023-05-22T11:00:11.680Z,23.50
2023-05-22T11:02:43.008Z,23.56
2023-05-22T11:05:35.417Z,23.59
2023-05-22T11:08:37.338Z,23.71
2023-05-22T11:11:13.094Z,23.77
2023-05-22T11:13:41.179Z,23.82
2023-05-22T11:16:11.172Z,23.89
2023-05-22T11:18:40.298Z,23.97
2023-05-22T11:21:11.141Z,24.06
2023-05-22T11:23:39.565Z,24.14
2023-05-22T11:26:26.361Z,24.25
2023-05-22T11:28:56.281Z,24.34
2023-05-22T11:31:24.315Z,24.39
2023-05-22T11:33:54.670Z,24.45
2023-05-22T11:36:23.345Z,24.49
2023-05-22T11:38:51.529Z,24.58
2023-05-22T11:41:19.181Z,24.69
2023-05-22T11:43:46.815Z,24.73
2023-05-22T11:46:15.161Z,24.82
2023-05-22T11:48:43.327Z,24.89
2023-05-22T11:51:12.292Z,24.90
2023-05-22T11:53:40.014Z,24.89
2023-05-22T11:56:07.951Z,24.86
2023-05-22T11:58:35.594Z,24.84
2023-05-22T12:01:04.149Z,24.85
2023-05-22T12:03:33.458Z,24.82
2023-05-22T12:06:02.923Z,24.88
2023-05-22T12:08:32.057Z,24.94
2023-05-22T12:11:00.055Z,25.00
2023-05-22T12:13:29.989Z,24.99
2023-05-22T12:16:00.652Z,25.09
2023-05-22T12:18:28.459Z,25.01
2023-05-22T12:20:56.634Z,24.98
2023-05-22T12:23:25.474Z,25.02
2023-05-22T12:26:01.859Z,25.12
2023-05-22T12:28:29.570Z,25.19
2023-05-22T12:30:57.217Z,25.25
2023-05-22T12:33:28.655Z,25.22
2023-05-22T12:35:58.384Z,25.22
2023-05-22T12:38:28.485Z,25.29
2023-05-22T12:40:56.696Z,25.36
2023-05-22T12:43:27.074Z,25.36
2023-05-22T12:45:55.649Z,25.41
2023-05-22T12:48:23.864Z,25.41
2023-05-22T12:50:51.511Z,25.45
2023-05-22T12:53:19.523Z,25.52
2023-05-22T12:55:47.123Z,25.62
2023-05-22T12:58:14.741Z,25.67
2023-05-22T13:00:43.700Z,25.71
2023-05-22T13:03:12.005Z,25.75
2023-05-22T13:05:40.063Z,25.81
2023-05-22T13:08:08.127Z,25.92
2023-05-22T13:10:36.323Z,25.95
2023-05-22T13:13:03.953Z,26.00
2023-05-22T13:15:32.468Z,26.09
2023-05-22T13:18:01.561Z,26.15
2023-05-22T13:20:29.190Z,26.25
2023-05-22T13:22:57.760Z,26.30
2023-05-22T13:25:25.401Z,26.37
2023-05-22T13:27:53.045Z,26.44
2023-05-22T13:30:20.918Z,26.48
2023-05-22T13:32:48.654Z,26.51
2023-05-22T13:35:17.695Z,26.48
2023-05-22T13:37:45.590Z,26.40
2023-05-22T13:40:13.702Z,26.28
2023-05-22T13:42:41.427Z,26.23
2023-05-22T13:45:10.930Z,26.18
2023-05-22T13:47:38.628Z,26.12
2023-05-22T13:50:07.424Z,26.08
2023-05-22T13:52:37.554Z,26.10
2023-05-22T13:55:05.718Z,26.10
2023-05-22T13:57:33.323Z,26.06
2023-05-22T14:00:01.070Z,26.04
2023-05-22T14:02:28.876Z,26.00
2023-05-22T14:04:56.572Z,26.07
2023-05-22T14:07:24.791Z,26.20
2023-05-22T14:09:53.785Z,26.35
2023-05-22T14:12:21.387Z,26.45
2023-05-22T14:14:49.032Z,26.46
2023-05-22T14:17:16.737Z,26.56
2023-05-22T14:19:44.341Z,26.71
2023-05-22T14:22:12.689Z,26.74
2023-05-22T14:24:40.423Z,26.75
2023-05-22T14:27:09.980Z,26.85
2023-05-22T14:29:37.667Z,27.00
2023-05-22T14:32:05.769Z,27.09
2023-05-22T14:34:33.522Z,27.10
2023-05-22T14:37:02.307Z,27.11
2023-05-22T14:39:29.992Z,27.04
2023-05-22T14:41:57.674Z,26.96
2023-05-22T14:44:26.657Z,26.94
2023-05-22T14:46:54.638Z,26.97
2023-05-22T14:49:22.284Z,27.07
2023-05-22T14:51:49.959Z,27.19
2023-05-22T14:54:19.080Z,27.30
2023-05-22T14:56:47.120Z,27.35
2023-05-22T14:59:14.945Z,27.33
2023-05-22T15:01:44.424Z,27.26
2023-05-22T15:04:12.160Z,27.28
2023-05-22T15:06:40.106Z,27.39
2023-05-22T15:09:08.517Z,27.56
2023-05-22T15:11:36.333Z,27.74
2023-05-22T15:14:04.090Z,27.90
2023-05-22T15:16:31.700Z,28.06
2023-05-22T15:19:00.729Z,28.18
2023-05-22T15:21:28.498Z,28.25
2023-05-22T15:23:56.195Z,28.30
2023-05-22T15:26:23.804Z,28.32
2023-05-22T15:28:51.430Z,28.41
2023-05-22T15:31:19.723Z,28.52
2023-05-22T15:33:47.409Z,28.60
2023-05-22T15:36:16.458Z,28.65
2023-05-22T15:38:44.088Z,28.72
2023-05-22T15:41:11.982Z,28.79
2023-05-22T15:43:39.581Z,28.79
2023-05-22T15:46:08.401Z,28.65
2023-05-22T15:48:36.232Z,28.59
2023-05-22T15:51:03.848Z,28.51
2023-05-22T15:53:32.780Z,28.39
2023-05-22T15:56:00.377Z,28.29
2023-05-22T15:58:28.533Z,28.16
2023-05-22T16:00:56.283Z,28.01
2023-05-22T16:03:24.046Z,27.92
2023-05-22T16:05:51.848Z,27.80
2023-05-22T16:08:19.552Z,27.67
2023-05-22T16:10:48.508Z,27.41
2023-05-22T16:13:16.439Z,27.19
2023-05-22T16:15:44.736Z,26.97
2023-05-22T16:18:12.843Z,26.73
2023-05-22T16:20:40.584Z,26.30
2023-05-22T16:23:08.278Z,25.85
2023-05-22T16:25:35.902Z,25.45
2023-05-22T16:28:05.699Z,24.93
2023-05-22T16:30:33.333Z,24.60
2023-05-22T16:33:01.078Z,24.37
2023-05-22T16:35:29.443Z,24.17
2023-05-22T16:37:57.046Z,24.03
2023-05-22T16:40:24.668Z,23.86
2023-05-22T16:42:52.447Z,23.70
2023-05-22T16:45:23.192Z,23.55
2023-05-22T16:47:50.991Z,23.42
2023-05-22T16:50:19.380Z,23.28
2023-05-22T16:52:47.044Z,23.14
2023-05-22T16:55:14.776Z,22.99
2023-05-22T16:57:43.181Z,22.86
2023-05-22T17:00:11.820Z,22.73
2023-05-22T17:02:41.330Z,22.58
2023-05-22T17:05:09.337Z,22.47
2023-05-22T17:07:37.010Z,22.39
2023-05-22T17:10:06.226Z,22.30
2023-05-22T17:12:33.881Z,22.21
2023-05-22T17:15:01.588Z,22.13
2023-05-22T17:17:29.202Z,22.02
2023-05-22T17:19:58.478Z,21.96
2023-05-22T17:22:26.250Z,21.92
2023-05-22T17:24:54.024Z,21.84
2023-05-22T17:27:35.584Z,21.75
2023-05-22T17:30:06.061Z,21.66
2023-05-22T17:32:33.981Z,21.55
2023-05-22T17:35:04.844Z,21.44
2023-05-22T17:37:32.565Z,21.34
2023-05-22T17:40:00.268Z,21.26
2023-05-22T17:42:28.062Z,21.22
2023-05-22T17:44:55.670Z,21.16
2023-05-22T17:47:23.331Z,21.14
2023-05-22T17:49:51.006Z,21.05
2023-05-22T17:52:20.180Z,20.99
2023-05-22T17:54:49.772Z,20.98
2023-05-22T17:57:17.426Z,20.92
2023-05-22T17:59:45.296Z,20.88
2023-05-22T18:02:13.016Z,20.83
2023-05-22T18:04:40.654Z,20.75
2023-05-22T18:07:08.386Z,20.73
2023-05-22T18:09:38.016Z,20.69
2023-05-22T18:12:06.080Z,20.66
2023-05-22T18:14:33.686Z,20.66
2023-05-22T18:17:01.281Z,20.63
2023-05-22T18:19:29.023Z,20.61
2023-05-22T18:21:56.712Z,20.59
2023-05-22T18:24:25.284Z,20.59
2023-05-22T18:26:54.769Z,20.57
2023-05-22T18:29:22.431Z,20.57
2023-05-22T18:31:50.093Z,20.52
2023-05-22T18:34:17.719Z,20.53
2023-05-22T18:36:45.881Z,20.51
2023-05-22T18:39:14.767Z,20.50
2023-05-22T18:41:42.370Z,20.52
2023-05-22T18:44:11.722Z,20.56
2023-05-22T18:46:39.393Z,20.56
2023-05-22T18:49:07.082Z,20.58
2023-05-22T18:51:35.714Z,20.59
2023-05-22T18:54:03.333Z,20.51
2023-05-22T18:56:32.335Z,20.52
2023-05-22T18:58:59.939Z,20.51
2023-05-22T19:01:28.910Z,20.48
2023-05-22T19:03:56.630Z,20.47
2023-05-22T19:06:25.849Z,20.44
2023-05-22T19:08:53.482Z,20.41
2023-05-22T19:11:21.236Z,20.39
2023-05-22T19:13:48.869Z,20.35
2023-05-22T19:16:16.614Z,20.31
2023-05-22T19:18:45.680Z,20.27
2023-05-22T19:21:14.677Z,20.23
2023-05-22T19:23:42.696Z,20.19
2023-05-22T19:26:10.469Z,20.15
2023-05-22T19:28:38.102Z,20.14
2023-05-22T19:31:05.949Z,20.10
2023-05-22T19:33:33.690Z,20.07
2023-05-22T19:36:02.927Z,20.04
2023-05-22T19:38:31.045Z,20.01
2023-05-22T19:40:58.801Z,19.97
2023-05-22T19:43:26.676Z,19.92
2023-05-22T19:45:55.445Z,19.88
2023-05-22T19:48:23.134Z,19.84
2023-05-22T19:50:51.014Z,19.79
2023-05-22T19:53:20.291Z,19.75
2023-05-22T19:55:47.884Z,19.71
2023-05-22T19:58:15.572Z,19.67
2023-05-22T20:00:43.407Z,19.63
2023-05-22T20:03:11.691Z,19.61
2023-05-22T20:05:39.675Z,19.55
2023-05-22T20:08:07.462Z,19.54
2023-05-22T20:10:36.527Z,19.49
2023-05-22T20:13:04.725Z,19.42
2023-05-22T20:15:32.898Z,19.36
2023-05-22T20:18:02.526Z,19.31
2023-05-22T20:20:30.367Z,19.25
2023-05-22T20:22:59.010Z,19.19
2023-05-22T20:25:26.642Z,19.14
2023-05-22T20:27:55.641Z,19.09
2023-05-22T20:30:23.268Z,19.03
2023-05-22T20:32:51.798Z,18.97
2023-05-22T20:35:20.080Z,18.90
2023-05-22T20:37:47.996Z,18.84
2023-05-22T20:40:16.022Z,18.80
2023-05-22T20:42:44.586Z,18.73
2023-05-22T20:45:15.287Z,18.66
2023-05-22T20:47:44.177Z,18.59
2023-05-22T20:50:12.272Z,18.52
2023-05-22T20:52:40.634Z,18.46
2023-05-22T20:55:08.968Z,18.39
2023-05-22T20:57:36.666Z,18.31
2023-05-22T21:00:05.838Z,18.24
2023-05-22T21:02:34.830Z,18.18
2023-05-22T21:05:02.514Z,18.09
2023-05-22T21:07:30.215Z,18.03
2023-05-22T21:09:57.924Z,17.98
2023-05-22T21:12:25.541Z,17.93
2023-05-22T21:14:53.269Z,17.86
2023-05-22T21:17:21.004Z,17.83
2023-05-22T21:19:50.062Z,17.77
2023-05-22T21:22:17.761Z,17.70
2023-05-22T21:24:45.381Z,17.62
2023-05-22T21:27:12.972Z,17.56
2023-05-22T21:29:40.560Z,17.46
2023-05-22T21:32:08.713Z,17.42
2023-05-22T21:34:36.618Z,17.35
2023-05-22T21:37:06.128Z,17.32
2023-05-22T21:39:33.711Z,17.26
2023-05-22T21:42:01.416Z,17.25
2023-05-22T21:44:29.049Z,17.24
2023-05-22T21:46:56.778Z,17.24
2023-05-22T21:49:24.381Z,17.20
2023-05-22T21:51:51.978Z,17.15
2023-05-22T21:54:20.982Z,17.11
2023-05-22T21:56:48.647Z,17.05
2023-05-22T21:59:16.383Z,16.97
2023-05-22T22:01:44.315Z,16.97
2023-05-22T22:04:12.138Z,16.97
2023-05-22T22:06:39.758Z,16.93
2023-05-22T22:09:07.352Z,16.88
2023-05-22T22:11:36.287Z,16.85
2023-05-22T22:14:04.802Z,16.85
2023-05-22T22:16:35.392Z,16.83
2023-05-22T22:19:03.271Z,16.80
2023-05-22T22:21:31.550Z,16.76
2023-05-22T22:23:59.168Z,16.75
2023-05-22T22:26:27.028Z,16.70
2023-05-22T22:28:55.987Z,16.69
2023-05-22T22:31:23.651Z,16.69
2023-05-22T22:33:51.295Z,16.68
2023-05-22T22:36:19.162Z,16.68
2023-05-22T22:38:47.075Z,16.67
2023-05-22T22:41:14.673Z,16.58
2023-05-22T22:43:42.337Z,16.57
2023-05-22T22:46:11.438Z,16.54
2023-05-22T22:48:41.581Z,16.53
2023-05-22T22:51:09.380Z,16.51
2023-05-22T22:53:38.288Z,16.50
2023-05-22T22:56:06.120Z,16.40
2023-05-22T22:58:33.732Z,16.37
2023-05-22T23:01:01.528Z,16.35
2023-05-22T23:03:30.519Z,16.31
2023-05-22T23:05:58.552Z,16.28
2023-05-22T23:08:26.152Z,16.22
2023-05-22T23:10:53.732Z,16.21
2023-05-22T23:13:21.406Z,16.18
2023-05-22T23:15:49.916Z,16.15
2023-05-22T23:18:17.642Z,16.13
2023-05-22T23:20:46.987Z,16.13
2023-05-22T23:23:15.352Z,16.12
2023-05-22T23:25:43.077Z,16.09
2023-05-22T23:28:10.750Z,16.07
2023-05-22T23:30:39.055Z,16.04
2023-05-22T23:33:07.564Z,16.02
2023-05-22T23:35:35.364Z,15.99
2023-05-22T23:38:04.268Z,15.96
2023-05-22T23:40:31.883Z,15.96
2023-05-22T23:42:59.442Z,15.91
2023-05-22T23:45:27.203Z,15.84
2023-05-22T23:47:54.775Z,15.81
2023-05-22T23:50:22.372Z,15.78
2023-05-22T23:52:50.609Z,15.75
2023-05-22T23:55:19.686Z,15.72
2023-05-22T23:57:47.375Z,15.65
